createdAt,value
2022-10-23T11:24:06.995Z,21.58
2022-10-23T11:26:47.959Z,20.92
2022-10-23T11:29:41.524Z,21.01
2022-10-23T11:32:30.661Z,21.62
2022-10-23T11:35:15.813Z,21.64
2022-10-23T11:37:44.138Z,21.90
2022-10-23T11:40:24.967Z,22.28
2022-10-23T11:42:53.370Z,22.06
2022-10-23T11:45:34.039Z,22.35
2022-10-23T11:48:04.225Z,22.71
2022-10-23T11:50:35.404Z,22.85
2022-10-23T11:53:14.783Z,22.59
2022-10-23T11:56:00.989Z,23.21
2022-10-23T11:58:41.482Z,23.66
2022-10-23T12:01:25.357Z,21.99
2022-10-23T12:03:56.914Z,21.83
2022-10-23T12:06:29.493Z,22.39
2022-10-23T12:09:05.687Z,21.43
2022-10-23T12:11:48.982Z,22.18
2022-10-23T12:14:28.306Z,22.32
2022-10-23T12:16:56.705Z,21.69
2022-10-23T12:19:26.547Z,22.17
2022-10-23T12:21:56.336Z,21.73
2022-10-23T12:24:44.760Z,22.77
2022-10-23T12:27:32.879Z,23.44
2022-10-23T12:30:20.376Z,23.64
2022-10-23T12:33:18.038Z,25.31
2022-10-23T12:36:12.584Z,26.22
2022-10-23T12:38:45.929Z,26.45
2022-10-23T12:41:17.062Z,26.78
2022-10-23T12:43:55.905Z,26.11
2022-10-23T12:46:31.927Z,25.79
2022-10-23T12:49:01.241Z,24.58
2022-10-23T12:51:31.867Z,25.47
2022-10-23T12:54:00.528Z,27.38
2022-10-23T14:25:44.782Z,22.31
2022-10-23T14:28:13.137Z,22.31
2022-10-23T14:30:41.730Z,21.76
2022-10-23T14:33:10.068Z,21.62
2022-10-23T14:35:40.515Z,21.40
2022-10-23T14:38:08.544Z,20.96
2022-10-23T14:40:38.696Z,20.86
2022-10-23T14:43:08.331Z,20.90
2022-10-23T14:45:37.493Z,20.35
2022-10-23T14:48:06.526Z,20.28
2022-10-23T14:50:36.907Z,20.27
2022-10-23T14:53:05.020Z,19.87
2022-10-23T14:55:33.146Z,19.75
2022-10-23T14:58:01.225Z,19.90
2022-10-23T15:00:30.750Z,20.04
2022-10-23T15:02:58.862Z,19.84
2022-10-23T15:05:27.195Z,19.73
2022-10-23T15:07:56.851Z,19.82
2022-10-23T15:10:24.992Z,19.93
2022-10-23T15:12:53.758Z,19.77
2022-10-23T15:15:22.404Z,19.77
2022-10-23T15:17:51.780Z,19.75
2022-10-23T15:20:19.920Z,19.56
2022-10-23T15:22:47.913Z,19.26
2022-10-23T15:25:18.037Z,19.19
2022-10-23T15:27:46.532Z,19.08
2022-10-23T15:30:14.913Z,19.01
2022-10-23T15:32:43.302Z,18.85
2022-10-23T15:35:13.061Z,18.69
2022-10-23T15:37:41.329Z,18.53
2022-10-23T15:40:10.490Z,18.35
2022-10-23T15:42:38.768Z,18.15
2022-10-23T15:45:08.056Z,17.94
2022-10-23T15:47:38.101Z,17.85
2022-10-23T15:50:07.079Z,17.76
2022-10-23T15:52:36.628Z,17.56
2022-10-23T15:55:05.022Z,17.39
2022-10-23T15:57:33.237Z,17.33
2022-10-23T16:00:01.308Z,17.19
2022-10-23T16:02:30.142Z,17.07
2022-10-23T16:04:59.129Z,17.10
2022-10-23T16:07:27.355Z,17.26
2022-10-23T16:09:57.044Z,16.98
2022-10-23T16:12:25.633Z,16.80
2022-10-23T16:14:53.725Z,16.63
2022-10-23T16:17:21.803Z,16.51
2022-10-23T16:19:50.006Z,16.43
2022-10-23T16:22:18.548Z,16.36
2022-10-23T16:24:46.641Z,16.25
2022-10-23T16:27:16.350Z,16.11
2022-10-23T16:29:44.326Z,15.97
2022-10-23T16:32:12.507Z,15.86
2022-10-23T16:34:40.865Z,15.81
2022-10-23T16:37:09.120Z,15.69
2022-10-23T16:39:53.099Z,15.52
2022-10-23T16:42:33.379Z,15.51
2022-10-23T16:45:08.507Z,15.41
2022-10-23T16:47:36.771Z,15.34
2022-10-23T16:50:06.082Z,15.31
2022-10-23T16:52:34.608Z,15.91
2022-10-23T16:55:02.721Z,15.74
2022-10-23T16:57:32.517Z,15.57
2022-10-23T17:00:00.582Z,15.51
2022-10-23T17:02:29.073Z,16.07
2022-10-23T17:04:57.377Z,16.36
2022-10-23T17:07:25.582Z,16.20
2022-10-23T17:09:53.638Z,15.98
2022-10-23T17:12:21.784Z,16.28
2022-10-23T17:14:51.413Z,16.13
2022-10-23T17:17:19.466Z,16.24
2022-10-23T17:19:47.685Z,16.26
2022-10-23T17:22:17.673Z,16.11
2022-10-23T17:24:48.755Z,16.24
2022-10-23T17:27:20.170Z,16.13
2022-10-23T17:29:48.615Z,16.06
2022-10-23T17:32:19.188Z,15.92
2022-10-23T17:34:48.011Z,15.82
2022-10-23T17:37:17.526Z,15.87
2022-10-23T17:39:45.691Z,15.73
2022-10-23T17:42:14.091Z,15.65
2022-10-23T17:44:42.371Z,15.49
2022-10-23T17:47:12.511Z,15.50
2022-10-23T17:49:44.190Z,15.31
2022-10-23T17:52:15.090Z,14.95
2022-10-23T17:54:43.414Z,14.72
2022-10-23T17:57:11.533Z,14.60
2022-10-23T17:59:39.662Z,14.59
2022-10-23T18:02:14.236Z,14.51
2022-10-23T18:04:44.636Z,14.65
2022-10-23T18:07:13.109Z,14.44
2022-10-23T18:09:41.209Z,14.30
2022-10-23T18:12:09.370Z,14.22
2022-10-23T18:14:38.515Z,14.15
2022-10-23T18:17:07.119Z,14.10
2022-10-23T18:19:36.974Z,14.04
2022-10-23T18:22:06.648Z,13.98
2022-10-23T18:24:34.831Z,13.93
2022-10-23T18:27:04.090Z,13.97
2022-10-23T18:29:32.261Z,13.95
2022-10-23T18:32:00.579Z,13.97
2022-10-23T18:34:28.714Z,13.95
2022-10-23T18:36:56.848Z,13.93
2022-10-23T18:39:26.781Z,13.93
2022-10-23T18:41:57.260Z,13.93
2022-10-23T18:44:28.841Z,13.96
2022-10-23T18:46:57.811Z,13.94
2022-10-23T18:49:26.005Z,14.00
2022-10-23T18:51:54.271Z,14.04
2022-10-23T18:54:22.983Z,14.05
2022-10-23T18:56:56.440Z,14.06
2022-10-23T18:59:24.624Z,14.12
2022-10-23T19:01:52.876Z,14.19
2022-10-23T19:04:22.306Z,14.24
2022-10-23T19:06:51.838Z,14.27
2022-10-23T19:09:20.970Z,14.26
2022-10-23T19:11:49.106Z,14.32
2022-10-23T19:14:18.465Z,14.50
2022-10-23T19:16:58.255Z,14.43
2022-10-23T19:19:31.149Z,14.50
2022-10-23T19:21:59.779Z,14.53
2022-10-23T19:24:33.658Z,14.52
2022-10-23T19:27:03.071Z,14.52
2022-10-23T19:29:33.319Z,14.52
2022-10-23T19:32:01.851Z,14.51
2022-10-23T19:34:30.194Z,14.51
2022-10-23T19:37:00.314Z,14.50
2022-10-23T19:39:29.054Z,14.55
2022-10-23T19:41:57.695Z,14.55
2022-10-23T19:44:25.971Z,14.52
2022-10-23T19:46:55.604Z,14.55
2022-10-23T19:49:23.975Z,14.55
2022-10-23T19:51:52.509Z,14.54
2022-10-23T19:54:21.337Z,14.61
2022-10-23T19:56:49.987Z,14.97
2022-10-23T19:59:19.063Z,15.36
2022-10-23T20:01:48.768Z,15.53
2022-10-23T20:04:19.796Z,15.45
2022-10-23T20:06:48.224Z,15.29
2022-10-23T20:09:16.904Z,15.38
2022-10-23T20:11:45.431Z,15.38
2022-10-23T20:14:13.988Z,15.35
2022-10-23T20:16:44.770Z,15.41
2022-10-23T20:21:50.841Z,15.38
2022-10-23T20:24:21.328Z,15.27
2022-10-23T20:26:51.822Z,15.14
2022-10-23T20:29:20.579Z,14.85
2022-10-23T20:31:48.691Z,14.72
2022-10-23T20:34:17.672Z,14.67
2022-10-23T20:36:48.538Z,14.64
2022-10-23T20:39:20.870Z,14.64
2022-10-23T20:41:49.215Z,14.60
2022-10-23T20:44:19.359Z,14.63
2022-10-23T20:46:48.392Z,14.60
2022-10-23T20:49:17.834Z,14.60
2022-10-23T20:51:48.073Z,14.64
2022-10-23T20:54:18.908Z,14.61
2022-10-23T20:56:46.893Z,14.62
2022-10-23T20:59:16.601Z,14.61
2022-10-23T21:01:48.577Z,14.64
2022-10-23T21:04:19.019Z,14.64
2022-10-23T21:07:08.270Z,14.68
2022-10-23T21:09:38.012Z,14.69
2022-10-23T21:12:07.549Z,14.72
2022-10-23T21:14:37.948Z,14.75
2022-10-23T21:17:06.408Z,14.77
2022-10-23T21:20:00.560Z,14.75
2022-10-23T21:22:28.784Z,14.78
2022-10-23T21:25:00.013Z,14.81
2022-10-23T21:27:28.293Z,14.81
2022-10-23T21:29:56.306Z,14.71
2022-10-23T21:32:24.345Z,14.79
2022-10-23T21:34:52.402Z,14.85
2022-10-23T21:37:21.006Z,14.85
2022-10-23T21:39:49.033Z,14.89
2022-10-23T21:42:18.519Z,14.87
2022-10-23T21:44:47.258Z,14.90
2022-10-23T21:47:15.596Z,14.94
2022-10-23T21:49:44.527Z,15.00
2022-10-23T21:52:15.020Z,15.01
2022-10-23T21:54:45.887Z,15.08
2022-10-23T21:57:15.380Z,15.12
2022-10-23T21:59:45.500Z,15.12
2022-10-23T22:02:14.020Z,15.14
2022-10-23T22:04:42.501Z,15.21
2022-10-23T22:07:14.784Z,15.25
2022-10-23T22:09:43.656Z,15.24
2022-10-23T22:12:12.901Z,15.24
2022-10-23T22:14:41.066Z,15.24
2022-10-23T22:17:10.879Z,15.27
2022-10-23T22:19:38.879Z,15.31
2022-10-23T22:22:07.083Z,15.41
2022-10-23T22:24:37.062Z,15.42
2022-10-23T22:27:05.486Z,15.50
2022-10-23T22:29:33.781Z,15.61
2022-10-23T22:32:02.420Z,15.70
2022-10-23T22:37:20.575Z,15.92
2022-10-23T22:39:52.088Z,16.00
2022-10-23T22:42:20.499Z,16.10
2022-10-23T22:44:48.967Z,16.15
2022-10-23T22:47:17.084Z,16.22
2022-10-23T22:49:46.564Z,16.25
2022-10-23T22:52:14.683Z,16.29
2022-10-23T22:54:42.714Z,16.28
2022-10-23T22:57:10.764Z,16.19
2022-10-23T22:59:40.022Z,16.18
2022-10-23T23:02:08.287Z,16.17
2022-10-23T23:04:38.186Z,16.06
2022-10-23T23:07:09.227Z,16.09
2022-10-23T23:09:38.938Z,16.03
2022-10-23T23:12:08.160Z,16.04
2022-10-23T23:14:36.318Z,15.96
2022-10-23T23:17:05.026Z,15.98
2022-10-23T23:19:33.417Z,15.93
2022-10-23T23:22:02.020Z,15.91
2022-10-23T23:24:32.182Z,15.82
2022-10-23T23:27:00.366Z,15.67
2022-10-23T23:29:29.681Z,15.54
2022-10-23T23:31:57.837Z,15.38
2022-10-23T23:34:25.901Z,15.22
2022-10-23T23:36:53.905Z,15.07
2022-10-23T23:39:21.955Z,14.85
2022-10-23T23:41:51.325Z,14.62
2022-10-23T23:44:19.547Z,14.31
2022-10-23T23:46:47.524Z,14.04
2022-10-23T23:49:15.528Z,13.89
2022-10-23T23:51:43.781Z,13.90
2022-10-23T23:54:11.820Z,13.81
2022-10-23T23:56:40.061Z,13.68
2022-10-23T23:59:09.720Z,13.73
